Time;durP1;ratioP1;P1;durP2;ratioP2;P2;SDS_P1;SDS_P2;PMS_P1;PMS_P2;Temp;Humidity;BMP_temperature;BMP_pressure;BME280_temperature;BME280_humidity;BME280_pressure;Samples;Min_cycle;Max_cycle;Signal;HPM_P1;HPM_P2
2023/05/23 00:01:35;;;;;;;16.93;15.43;;;;;;;15.10;100.00;95835.78;7394762;19;20441;-76
2023/05/23 00:04:03;;;;;;;19.07;17.23;;;;;;;15.23;100.00;95818.41;7395486;19;20405;-76
2023/05/23 00:06:30;;;;;;;16.67;14.87;;;;;;;15.40;100.00;95827.66;7395391;19;20374;-75
2023/05/23 00:08:57;;;;;;;16.47;15.03;;;;;;;15.16;100.00;95834.31;7399140;19;20388;-75
2023/05/23 00:11:28;;;;;;;18.00;16.40;;;;;;;14.93;100.00;95823.84;7394342;19;20777;-75
2023/05/23 00:13:59;;;;;;;17.10;15.60;;;;;;;15.16;100.00;95831.66;7397573;19;20347;-75
2023/05/23 00:16:27;;;;;;;16.27;14.77;;;;;;;14.99;100.00;95845.56;7396270;19;20389;-74
2023/05/23 00:18:56;;;;;;;17.27;15.43;;;;;;;15.28;100.00;95863.34;7397349;19;20371;-75
2023/05/23 00:21:23;;;;;;;20.93;17.30;;;;;;;15.17;100.00;95848.41;7394949;19;20424;-74
2023/05/23 00:23:50;;;;;;;18.20;16.50;;;;;;;15.35;100.00;95866.03;7395476;19;20921;-74
2023/05/23 00:26:17;;;;;;;17.97;16.20;;;;;;;15.36;100.00;95856.94;7397060;19;20373;-74
2023/05/23 00:28:45;;;;;;;17.60;15.80;;;;;;;15.58;100.00;95871.19;7394250;19;20406;-75
2023/05/23 00:31:12;;;;;;;18.37;15.73;;;;;;;15.28;100.00;95849.25;7394928;19;20959;-75
2023/05/23 00:33:39;;;;;;;17.43;15.83;;;;;;;14.90;100.00;95872.47;7395708;19;20805;-75
2023/05/23 00:36:06;;;;;;;16.37;14.87;;;;;;;14.88;100.00;95856.13;7395325;19;20900;-74
2023/05/23 00:38:33;;;;;;;17.43;15.53;;;;;;;14.87;100.00;95864.47;7394178;19;20763;-74
2023/05/23 00:41:01;;;;;;;17.53;15.90;;;;;;;14.72;100.00;95847.59;7394733;19;20418;-74
2023/05/23 00:43:28;;;;;;;18.00;16.17;;;;;;;15.04;100.00;95882.50;7394060;19;20389;-74
2023/05/23 00:45:55;;;;;;;17.60;15.90;;;;;;;15.00;100.00;95881.72;7396173;19;20348;-74
2023/05/23 00:48:24;;;;;;;17.93;16.23;;;;;;;14.96;100.00;95868.38;7393923;19;20922;-75
2023/05/23 00:50:52;;;;;;;16.53;14.80;;;;;;;14.76;100.00;95864.34;7395157;19;20413;-75
2023/05/23 00:53:20;;;;;;;16.70;15.23;;;;;;;14.99;100.00;95899.59;7394054;19;20366;-75
2023/05/23 00:55:47;;;;;;;17.20;15.40;;;;;;;14.59;100.00;95860.38;7397257;19;20334;-75
2023/05/23 00:58:14;;;;;;;17.10;15.50;;;;;;;14.56;100.00;95887.72;7395293;19;20383;-75
2023/05/23 01:00:43;;;;;;;18.60;16.60;;;;;;;14.45;100.00;95884.16;7394655;19;20410;-75
2023/05/23 01:03:16;;;;;;;32.73;16.70;;;;;;;14.65;100.00;95882.84;7394318;19;20353;-75
2023/05/23 01:05:44;;;;;;;19.40;15.60;;;;;;;14.70;100.00;95900.41;7402344;19;20403;-75
2023/05/23 01:08:11;;;;;;;16.47;14.77;;;;;;;14.89;100.00;95899.47;7401703;19;20353;-75
2023/05/23 01:10:38;;;;;;;17.40;15.70;;;;;;;14.87;100.00;95891.84;7402899;19;20409;-74
2023/05/23 01:13:21;;;;;;;22.40;15.70;;;;;;;14.96;100.00;95896.91;7401780;19;20377;-75
2023/05/23 01:15:56;;;;;;;16.67;15.10;;;;;;;14.68;100.00;95895.44;7400182;19;20407;-75
2023/05/23 01:18:37;;;;;;;20.27;16.23;;;;;;;14.60;100.00;95904.47;7403901;19;20349;-75
2023/05/23 01:21:16;;;;;;;17.23;15.20;;;;;;;14.55;100.00;95899.44;7400109;19;20416;-75
2023/05/23 01:23:54;;;;;;;16.30;14.70;;;;;;;14.62;100.00;95901.44;7401373;19;20745;-75
2023/05/23 01:26:47;;;;;;;17.20;15.60;;;;;;;13.66;100.00;95878.84;7401688;19;20913;-76
2023/05/23 01:29:23;;;;;;;19.70;17.87;;;;;;;13.57;100.00;95863.91;7401230;19;20900;-76
2023/05/23 01:31:53;;;;;;;15.80;14.20;;;;;;;13.88;100.00;95881.44;7401281;19;20407;-75
2023/05/23 01:34:21;;;;;;;16.63;14.87;;;;;;;14.34;100.00;95893.84;7401231;19;20738;-75
2023/05/23 01:36:55;;;;;;;18.63;16.63;;;;;;;14.29;100.00;95870.22;7402412;19;20402;-75
2023/05/23 01:39:22;;;;;;;16.40;15.00;;;;;;;14.63;100.00;95898.41;7401670;19;20431;-76
2023/05/23 01:41:51;;;;;;;19.33;15.60;;;;;;;14.71;100.00;95900.06;7398516;19;20428;-75
2023/05/23 01:44:19;;;;;;;17.00;15.40;;;;;;;14.72;100.00;95895.50;7399259;19;20401;-76
2023/05/23 01:46:47;;;;;;;16.70;14.90;;;;;;;14.74;100.00;95869.28;7401529;19;20345;-75
2023/05/23 01:49:17;;;;;;;16.40;14.80;;;;;;;14.17;100.00;95860.59;7401485;19;20407;-75
2023/05/23 01:51:45;;;;;;;15.83;14.30;;;;;;;14.04;100.00;95902.59;7398413;19;20440;-75
2023/05/23 01:54:15;;;;;;;17.07;15.23;;;;;;;14.26;100.00;95900.19;7401422;19;20372;-75
2023/05/23 01:56:43;;;;;;;17.10;15.37;;;;;;;14.33;100.00;95868.38;7400196;19;20432;-75
2023/05/23 01:59:11;;;;;;;16.83;15.43;;;;;;;14.61;100.00;95894.59;7401326;19;20457;-75
2023/05/23 02:01:38;;;;;;;16.13;14.50;;;;;;;14.57;100.00;95875.19;7398423;19;20982;-75
2023/05/23 02:04:05;;;;;;;16.50;14.80;;;;;;;14.68;100.00;95894.66;7399482;19;20421;-75
2023/05/23 02:06:33;;;;;;;16.83;13.93;;;;;;;14.67;100.00;95877.94;7399406;19;20908;-75
2023/05/23 02:09:00;;;;;;;17.00;14.60;;;;;;;14.87;100.00;95902.50;7401478;19;20381;-75
2023/05/23 02:11:27;;;;;;;16.10;14.40;;;;;;;14.47;100.00;95873.91;7398682;19;20429;-74
2023/05/23 02:13:54;;;;;;;16.07;14.57;;;;;;;14.90;100.00;95901.75;7400846;19;20385;-75
2023/05/23 02:16:22;;;;;;;15.90;14.40;;;;;;;14.53;100.00;95898.28;7398935;19;20717;-75
2023/05/23 02:18:51;;;;;;;16.50;13.93;;;;;;;14.58;100.00;95882.78;7401070;19;20360;-75
2023/05/23 02:21:18;;;;;;;14.00;12.70;;;;;;;14.09;100.00;95830.47;7398189;19;20756;-75
2023/05/23 02:23:45;;;;;;;18.07;14.80;;;;;;;14.53;100.00;95871.69;7399757;19;20737;-76
2023/05/23 02:26:16;;;;;;;15.50;13.50;;;;;;;14.78;100.00;95894.78;7399659;19;20726;-75
2023/05/23 02:28:43;;;;;;;22.57;14.93;;;;;;;14.68;100.00;95882.13;7401125;19;20760;-75
2023/05/23 02:31:10;;;;;;;16.57;14.33;;;;;;;14.56;100.00;95871.75;7395585;19;20425;-75
2023/05/23 02:33:37;;;;;;;16.17;14.60;;;;;;;14.29;100.00;95883.50;7401264;19;20434;-75
2023/05/23 02:36:04;;;;;;;16.63;14.97;;;;;;;14.41;100.00;95886.72;7400205;19;20377;-75
2023/05/23 02:38:31;;;;;;;16.00;14.50;;;;;;;13.31;100.00;95697.38;7406271;19;20373;-76
2023/05/23 02:40:59;;;;;;;17.13;15.50;;;;;;;14.54;100.00;95858.00;7434012;19;20428;-75
2023/05/23 02:43:26;;;;;;;15.93;14.40;;;;;;;14.69;100.00;95866.91;7433179;19;20386;-75
2023/05/23 02:45:53;;;;;;;16.27;14.67;;;;;;;14.75;100.00;95876.13;7425073;19;20409;-76
2023/05/23 02:48:20;;;;;;;16.53;14.90;;;;;;;14.77;100.00;95889.84;7398600;19;20372;-76
2023/05/23 02:50:47;;;;;;;16.40;14.83;;;;;;;14.55;100.00;95870.19;7399092;19;20449;-78
2023/05/23 02:53:15;;;;;;;17.27;15.47;;;;;;;14.56;100.00;95892.25;7397596;19;20737;-76
2023/05/23 02:55:42;;;;;;;17.13;15.53;;;;;;;14.39;100.00;95848.31;7398847;19;20370;-76
2023/05/23 02:58:09;;;;;;;16.63;14.90;;;;;;;14.65;100.00;95868.78;7397577;19;20405;-75
2023/05/23 03:00:37;;;;;;;17.07;15.40;;;;;;;14.75;100.00;95900.84;7398520;19;20365;-75
2023/05/23 03:03:04;;;;;;;17.53;15.87;;;;;;;14.49;100.00;95879.63;7398026;19;20385;-75
2023/05/23 03:05:31;;;;;;;16.03;14.63;;;;;;;14.46;100.00;95872.38;7399441;19;20472;-75
2023/05/23 03:07:59;;;;;;;14.87;13.37;;;;;;;14.43;100.00;95859.78;7397490;19;20387;-75
2023/05/23 03:10:25;;;;;;;15.47;14.13;;;;;;;14.60;100.00;95882.44;7398684;19;20406;-75
2023/05/23 03:12:54;;;;;;;15.53;13.70;;;;;;;14.74;100.00;95894.00;7397306;19;20399;-75
2023/05/23 03:15:21;;;;;;;15.47;13.97;;;;;;;14.72;100.00;95898.16;7398848;19;20380;-75
2023/05/23 03:17:47;;;;;;;16.27;14.77;;;;;;;14.64;100.00;95896.53;7397265;19;20397;-75
2023/05/23 03:20:15;;;;;;;15.40;14.00;;;;;;;14.30;100.00;95901.03;7399126;19;20368;-75
2023/05/23 03:22:44;;;;;;;17.50;14.00;;;;;;;14.15;100.00;95887.53;7395472;19;20425;-75
2023/05/23 03:25:11;;;;;;;15.70;14.23;;;;;;;14.17;100.00;95874.66;7398934;19;20460;-76
2023/05/23 03:27:38;;;;;;;15.87;14.33;;;;;;;14.13;100.00;95887.13;7396969;19;20387;-76
2023/05/23 03:30:06;;;;;;;15.23;13.87;;;;;;;14.24;100.00;95883.84;7398192;19;20500;-76
2023/05/23 03:32:33;;;;;;;14.43;12.93;;;;;;;14.46;100.00;95898.97;7395070;19;20420;-76
2023/05/23 03:35:00;;;;;;;14.77;13.60;;;;;;;14.48;100.00;95897.47;7398324;19;20406;-76
2023/05/23 03:37:27;;;;;;;14.20;12.90;;;;;;;14.62;100.00;95902.22;7396787;19;20377;-76
2023/05/23 03:39:54;;;;;;;15.70;13.47;;;;;;;14.41;100.00;95884.06;7398581;19;20370;-75
2023/05/23 03:42:21;;;;;;;16.37;14.93;;;;;;;14.36;100.00;95889.69;7395481;19;20500;-76
2023/05/23 03:44:48;;;;;;;15.70;14.20;;;;;;;14.51;100.00;95916.50;7396966;19;20377;-75
2023/05/23 03:47:15;;;;;;;18.83;13.97;;;;;;;14.29;100.00;95872.88;7396976;19;20381;-76
2023/05/23 03:49:44;;;;;;;28.57;15.17;;;;;;;14.24;100.00;95900.56;7398026;19;20382;-75
2023/05/23 03:52:11;;;;;;;21.70;14.50;;;;;;;14.12;100.00;95908.75;7395555;19;20440;-75
2023/05/23 03:54:38;;;;;;;27.20;13.87;;;;;;;14.36;100.00;95928.84;7398285;19;20461;-75
2023/05/23 03:57:06;;;;;;;19.33;15.23;;;;;;;14.25;100.00;95918.03;7396373;19;20909;-75
2023/05/23 03:59:35;;;;;;;22.73;14.43;;;;;;;14.00;100.00;95867.19;7395074;19;20387;-75
2023/05/23 04:02:05;;;;;;;23.17;13.87;;;;;;;14.51;100.00;95929.81;7395089;19;20514;-75
2023/05/23 04:04:32;;;;;;;17.53;13.33;;;;;;;14.56;100.00;95932.94;7394325;19;20414;-75
2023/05/23 04:07:00;;;;;;;25.07;15.13;;;;;;;14.49;100.00;95916.88;7396516;19;20380;-75
2023/05/23 04:09:27;;;;;;;24.03;14.57;;;;;;;14.76;100.00;95934.31;7395335;19;20471;-75
2023/05/23 04:11:54;;;;;;;19.53;13.90;;;;;;;14.78;100.00;95926.72;7395399;19;20418;-75
2023/05/23 04:14:23;;;;;;;16.53;14.63;;;;;;;14.70;100.00;95913.72;7395918;19;20388;-75
2023/05/23 04:16:50;;;;;;;15.30;13.80;;;;;;;14.44;100.00;95930.50;7396998;19;20387;-75
2023/05/23 04:19:18;;;;;;;17.63;13.70;;;;;;;14.26;100.00;95932.09;7395661;19;20401;-75
2023/05/23 04:21:45;;;;;;;16.20;13.57;;;;;;;14.36;100.00;95926.94;7398699;19;20843;-75
2023/05/23 04:24:14;;;;;;;18.90;13.53;;;;;;;14.68;100.00;95932.69;7397215;19;20388;-75
2023/05/23 04:26:41;;;;;;;15.77;13.80;;;;;;;14.34;100.00;95868.03;7399085;19;20937;-75
2023/05/23 04:29:10;;;;;;;16.53;14.93;;;;;;;14.72;100.00;95930.09;7397838;19;20558;-75
2023/05/23 04:31:38;;;;;;;14.47;13.13;;;;;;;14.82;100.00;95941.97;7397322;19;20450;-76
2023/05/23 04:34:06;;;;;;;15.80;13.70;;;;;;;14.79;100.00;95930.16;7394787;19;20389;-76
2023/05/23 04:36:37;;;;;;;13.50;12.40;;;;;;;15.02;100.00;95941.44;7397939;19;20375;-75
2023/05/23 04:39:04;;;;;;;18.70;14.80;;;;;;;14.96;100.00;95926.19;7401272;19;20496;-76
2023/05/23 04:41:37;;;;;;;14.93;13.63;;;;;;;15.11;100.00;95941.19;7406205;19;20779;-77
2023/05/23 04:44:29;;;;;;;20.00;13.93;;;;;;;14.48;100.00;95902.81;7404711;19;20373;-75
2023/05/23 04:47:08;;;;;;;15.43;13.83;;;;;;;14.55;100.00;95931.38;7404243;19;20361;-75
2023/05/23 04:49:57;;;;;;;15.37;13.70;;;;;;;14.57;100.00;95888.47;7403110;19;20386;-75
2023/05/23 04:52:24;;;;;;;18.57;14.37;;;;;;;14.98;100.00;95937.22;7403714;19;20404;-75
2023/05/23 04:54:52;;;;;;;16.30;14.70;;;;;;;15.02;100.00;95948.69;7403856;19;20400;-75
2023/05/23 04:57:20;;;;;;;14.63;13.23;;;;;;;15.06;100.00;95925.50;7404777;19;20374;-75
2023/05/23 04:59:47;;;;;;;14.30;13.10;;;;;;;14.96;100.00;95931.50;7399601;19;20921;-75
2023/05/23 05:02:14;;;;;;;14.77;13.27;;;;;;;15.09;100.00;95916.81;7395057;19;20404;-75
2023/05/23 05:04:41;;;;;;;15.17;13.57;;;;;;;15.42;100.00;95944.53;7392224;19;20960;-76
2023/05/23 05:07:09;;;;;;;14.27;12.87;;;;;;;15.36;100.00;95938.78;7395017;19;20374;-75
2023/05/23 05:09:36;;;;;;;15.13;13.67;;;;;;;15.57;100.00;95933.63;7393400;19;20405;-76
2023/05/23 05:12:03;;;;;;;14.07;12.63;;;;;;;15.78;100.00;95956.28;7393524;19;20971;-76
2023/05/23 05:14:30;;;;;;;17.10;11.93;;;;;;;15.70;100.00;95955.47;7393865;19;20376;-76
2023/05/23 05:16:58;;;;;;;14.03;12.83;;;;;;;15.44;100.00;95948.34;7395312;19;20445;-76
2023/05/23 05:19:32;;;;;;;14.73;13.20;;;;;;;15.48;100.00;95943.03;7393673;19;20379;-75
2023/05/23 05:22:00;;;;;;;14.63;13.20;;;;;;;15.31;100.00;95971.81;7394129;19;20428;-75
2023/05/23 05:24:28;;;;;;;18.90;13.90;;;;;;;15.59;100.00;95978.56;7392501;19;20901;-76
2023/05/23 05:26:55;;;;;;;14.83;12.90;;;;;;;15.55;100.00;95937.78;7396910;19;20377;-75
2023/05/23 05:29:22;;;;;;;13.13;11.97;;;;;;;15.79;100.00;95971.91;7393945;19;20364;-75
2023/05/23 05:31:51;;;;;;;15.80;12.37;;;;;;;15.74;100.00;95944.81;7390926;19;20452;-75
2023/05/23 05:34:17;;;;;;;13.77;12.67;;;;;;;16.12;100.00;95955.00;7394033;19;20384;-75
2023/05/23 05:36:46;;;;;;;12.80;11.30;;;;;;;15.90;100.00;95975.44;7395548;19;20373;-75
2023/05/23 05:39:16;;;;;;;14.40;13.13;;;;;;;15.92;100.00;95957.16;7393963;19;20482;-75
2023/05/23 05:41:43;;;;;;;14.43;13.23;;;;;;;15.95;100.00;95972.44;7394112;19;20428;-76
2023/05/23 05:44:10;;;;;;;14.63;13.23;;;;;;;15.65;100.00;95940.56;7393050;19;20408;-76
2023/05/23 05:46:37;;;;;;;13.80;12.43;;;;;;;15.83;100.00;95959.38;7391889;19;20404;-75
2023/05/23 05:49:05;;;;;;;13.93;12.73;;;;;;;15.84;100.00;95976.91;7393324;19;20385;-75
2023/05/23 05:51:32;;;;;;;15.10;13.70;;;;;;;15.73;100.00;95980.59;7396416;19;20432;-75
2023/05/23 05:53:58;;;;;;;15.80;13.97;;;;;;;15.67;100.00;95950.88;7400469;19;20733;-75
2023/05/23 05:56:26;;;;;;;14.80;13.57;;;;;;;15.56;100.00;95955.31;7398141;19;20375;-75
2023/05/23 05:58:53;;;;;;;13.70;12.47;;;;;;;15.88;100.00;95985.69;7399894;19;20466;-75
2023/05/23 06:01:22;;;;;;;13.80;12.50;;;;;;;15.96;100.00;95989.94;7396566;19;20498;-75
2023/05/23 06:03:49;;;;;;;13.97;12.67;;;;;;;15.75;100.00;95997.00;7400153;19;20448;-75
2023/05/23 06:06:18;;;;;;;14.17;12.67;;;;;;;15.71;100.00;95996.22;7399129;19;20754;-75
2023/05/23 06:08:46;;;;;;;15.13;13.90;;;;;;;15.58;100.00;95969.03;7400887;19;20372;-75
2023/05/23 06:11:15;;;;;;;14.50;13.20;;;;;;;15.52;100.00;95963.28;7398062;19;20441;-75
2023/05/23 06:13:42;;;;;;;15.93;14.50;;;;;;;15.67;100.00;95982.84;7400520;19;20376;-76
2023/05/23 06:16:09;;;;;;;15.60;14.20;;;;;;;15.68;100.00;95975.63;7399920;19;20408;-75
2023/05/23 06:18:37;;;;;;;12.50;11.40;;;;;;;15.95;100.00;96004.44;7397610;19;20372;-74
2023/05/23 06:21:04;;;;;;;14.40;13.20;;;;;;;16.02;100.00;96005.59;7398089;19;20426;-74
2023/05/23 06:23:33;;;;;;;14.43;12.93;;;;;;;16.06;100.00;95996.53;7400594;19;20381;-74
2023/05/23 06:26:00;;;;;;;14.50;13.13;;;;;;;16.16;100.00;96000.38;7400712;19;20366;-75
2023/05/23 06:28:27;;;;;;;14.83;13.53;;;;;;;16.33;100.00;95996.31;7400881;19;20381;-74
2023/05/23 06:30:54;;;;;;;13.20;12.00;;;;;;;15.96;100.00;95971.28;7398477;19;20414;-75
2023/05/23 06:33:21;;;;;;;14.30;13.00;;;;;;;16.47;100.00;96007.09;7401247;19;20431;-75
2023/05/23 06:35:48;;;;;;;15.10;13.50;;;;;;;16.14;100.00;96008.75;7396723;19;20742;-75
2023/05/23 06:38:15;;;;;;;15.33;13.40;;;;;;;15.95;100.00;95993.75;7400394;19;20420;-75
2023/05/23 06:40:43;;;;;;;12.23;11.17;;;;;;;15.98;100.00;95981.59;7398200;19;20468;-75
2023/05/23 06:43:10;;;;;;;14.40;13.00;;;;;;;16.04;100.00;96008.69;7400474;19;20370;-75
2023/05/23 06:45:46;;;;;;;13.33;12.23;;;;;;;15.99;100.00;95974.34;7397037;19;20461;-75
2023/05/23 06:48:13;;;;;;;14.50;12.20;;;;;;;16.29;100.00;96014.97;7400274;19;20889;-75
2023/05/23 06:50:40;;;;;;;13.97;12.67;;;;;;;16.19;100.00;96002.34;7398871;19;20377;-75
2023/05/23 06:53:09;;;;;;;12.70;11.43;;;;;;;16.32;100.00;96019.56;7397476;19;20369;-76
2023/05/23 06:55:36;;;;;;;15.23;12.90;;;;;;;16.51;100.00;96021.97;7398666;19;20386;-75
2023/05/23 06:58:05;;;;;;;14.67;13.17;;;;;;;17.00;100.00;96001.31;7396976;19;20608;-76
2023/05/23 07:00:35;;;;;;;12.17;11.03;;;;;;;17.25;100.00;96026.22;7398749;19;20790;-76
2023/05/23 07:03:35;;;;;;;14.13;12.30;;;;;;;17.14;100.00;96038.75;7397322;19;20377;-76
2023/05/23 07:06:05;;;;;;;13.87;12.63;;;;;;;17.19;100.00;96045.63;7395281;19;20376;-76
2023/05/23 07:08:32;;;;;;;12.17;11.20;;;;;;;17.31;100.00;96034.63;7398819;19;20389;-77
2023/05/23 07:11:00;;;;;;;14.67;13.33;;;;;;;17.37;100.00;96014.41;7396545;19;20429;-76
2023/05/23 07:13:31;;;;;;;13.27;12.07;;;;;;;17.71;100.00;96036.28;7398515;19;20437;-77
2023/05/23 07:15:59;;;;;;;13.07;11.87;;;;;;;17.75;100.00;96033.59;7396919;19;20923;-76
2023/05/23 07:18:26;;;;;;;12.63;11.37;;;;;;;17.46;100.00;96019.38;7398766;19;20372;-77
2023/05/23 07:20:54;;;;;;;13.67;12.40;;;;;;;17.88;100.00;96024.06;7396276;19;20430;-77
2023/05/23 07:23:23;;;;;;;12.73;11.57;;;;;;;18.15;100.00;96051.22;7398720;19;20373;-77
2023/05/23 07:25:50;;;;;;;12.80;11.70;;;;;;;18.09;100.00;96039.41;7395521;19;20421;-77
2023/05/23 07:28:37;;;;;;;12.40;11.27;;;;;;;17.95;100.00;96037.47;7398978;19;20904;-77
2023/05/23 07:31:08;;;;;;;14.03;12.80;;;;;;;17.74;100.00;96056.91;7396874;19;20425;-77
2023/05/23 07:33:36;;;;;;;13.87;12.67;;;;;;;17.55;100.00;96033.16;7395820;19;20377;-77
2023/05/23 07:36:04;;;;;;;12.90;11.80;;;;;;;17.64;100.00;96031.66;7397550;19;20370;-77
2023/05/23 07:38:31;;;;;;;13.30;12.10;;;;;;;17.90;100.00;96043.22;7395631;19;20373;-77
2023/05/23 07:40:58;;;;;;;14.43;12.93;;;;;;;17.80;100.00;96039.38;7396948;19;20434;-76
2023/05/23 07:43:38;;;;;;;13.77;12.33;;;;;;;17.25;100.00;96060.94;7396046;19;20453;-76
2023/05/23 07:46:05;;;;;;;15.67;14.10;;;;;;;17.09;100.00;96071.94;7396120;19;20348;-76
2023/05/23 07:48:32;;;;;;;14.53;13.23;;;;;;;17.27;100.00;96069.34;7395346;19;20389;-76
2023/05/23 07:50:59;;;;;;;14.47;13.10;;;;;;;17.02;100.00;95991.00;7396917;19;20442;-76
2023/05/23 07:53:27;;;;;;;15.07;13.60;;;;;;;17.11;100.00;96084.94;7396306;19;20386;-76
2023/05/23 07:55:54;;;;;;;13.33;12.30;;;;;;;17.01;100.00;96059.69;7397756;19;20392;-76
2023/05/23 07:58:24;;;;;;;13.90;12.60;;;;;;;16.95;100.00;96069.19;7395784;19;20378;-76
2023/05/23 08:00:51;;;;;;;16.60;12.13;;;;;;;17.04;100.00;96058.16;7396992;19;20414;-76
2023/05/23 08:03:41;;;;;;;12.07;10.87;;;;;;;17.47;100.00;96085.06;7396623;19;20397;-76
2023/05/23 08:06:14;;;;;;;13.40;12.10;;;;;;;17.76;100.00;96048.50;7393882;19;20409;-76
2023/05/23 08:08:42;;;;;;;13.17;11.87;;;;;;;18.23;100.00;96093.69;7396939;19;20370;-76
2023/05/23 08:11:09;;;;;;;16.00;12.33;;;;;;;17.77;100.00;96090.94;7394778;19;20433;-76
2023/05/23 08:13:42;;;;;;;12.70;11.60;;;;;;;17.89;100.00;96055.78;7395425;19;20370;-76
2023/05/23 08:16:36;;;;;;;13.87;12.67;;;;;;;18.22;100.00;96091.41;7396372;19;20859;-75
2023/05/23 08:19:11;;;;;;;13.97;11.83;;;;;;;18.01;100.00;96092.88;7394975;19;20377;-76
2023/05/23 08:21:38;;;;;;;13.83;12.60;;;;;;;17.98;100.00;96085.63;7395203;19;20423;-76
2023/05/23 08:24:05;;;;;;;14.10;12.80;;;;;;;17.82;100.00;96079.09;7394983;19;20470;-76
2023/05/23 08:26:34;;;;;;;15.00;12.60;;;;;;;17.88;100.00;96098.97;7394751;19;20709;-76
2023/05/23 08:29:04;;;;;;;13.10;11.83;;;;;;;17.61;100.00;96083.22;7393447;19;20429;-76
2023/05/23 08:31:31;;;;;;;13.93;12.33;;;;;;;17.64;100.00;96081.72;7391733;19;20447;-76
2023/05/23 08:34:06;;;;;;;12.57;11.47;;;;;;;17.72;100.00;96086.72;7393684;19;20357;-76
2023/05/23 08:36:35;;;;;;;15.30;13.80;;;;;;;17.67;100.00;96095.09;7396106;19;20887;-76
2023/05/23 08:39:04;;;;;;;14.10;12.80;;;;;;;18.00;100.00;96106.66;7394971;19;20398;-77
2023/05/23 08:41:36;;;;;;;13.23;11.90;;;;;;;18.01;100.00;96100.16;7396024;19;20486;-77
2023/05/23 08:44:08;;;;;;;14.33;13.03;;;;;;;18.09;100.00;96108.97;7395585;19;20407;-76
2023/05/23 08:46:44;;;;;;;16.20;13.33;;;;;;;18.00;100.00;96110.09;7391715;19;20742;-76
2023/05/23 08:49:21;;;;;;;15.03;13.63;;;;;;;17.81;100.00;96077.56;7395794;19;20412;-76
2023/05/23 08:51:53;;;;;;;14.07;12.67;;;;;;;17.77;100.00;96119.59;7393081;19;20433;-76
2023/05/23 08:54:21;;;;;;;13.83;12.50;;;;;;;17.37;100.00;96087.34;7395531;19;20388;-76
2023/05/23 08:56:48;;;;;;;16.60;13.80;;;;;;;17.65;100.00;96113.41;7393921;19;20769;-75
2023/05/23 08:59:16;;;;;;;14.03;12.40;;;;;;;17.86;100.00;96120.75;7395836;19;20620;-75
2023/05/23 09:01:44;;;;;;;14.93;13.50;;;;;;;17.59;100.00;96106.13;7392726;19;20961;-75
2023/05/23 09:04:13;;;;;;;13.77;12.47;;;;;;;17.64;100.00;96117.25;7395800;19;20377;-75
2023/05/23 09:07:11;;;;;;;13.57;12.17;;;;;;;17.71;100.00;96098.56;7396509;19;20960;-75
2023/05/23 09:09:38;;;;;;;13.47;12.23;;;;;;;17.57;100.00;96090.47;7393993;19;20453;-75
2023/05/23 09:12:09;;;;;;;14.40;12.97;;;;;;;17.42;100.00;96105.69;7393682;19;20432;-75
2023/05/23 09:14:36;;;;;;;13.73;12.23;;;;;;;17.60;100.00;96102.31;7393790;19;20782;-75
2023/05/23 09:17:06;;;;;;;17.33;12.53;;;;;;;18.10;100.00;96116.63;7395456;19;20398;-77
2023/05/23 09:19:39;;;;;;;13.17;11.20;;;;;;;18.30;100.00;96131.19;7394667;19;20936;-78
2023/05/23 09:22:25;;;;;;;12.10;11.03;;;;;;;18.49;100.00;96137.31;7393165;19;20422;-77
2023/05/23 09:25:08;;;;;;;12.30;11.03;;;;;;;18.42;100.00;96107.84;7396200;19;20377;-77
2023/05/23 09:27:37;;;;;;;11.63;10.43;;;;;;;18.69;100.00;96108.25;7398944;19;20365;-76
2023/05/23 09:30:09;;;;;;;13.40;11.70;;;;;;;18.50;100.00;96139.59;7402900;19;20396;-76
2023/05/23 09:32:37;;;;;;;12.27;10.70;;;;;;;18.87;100.00;96127.75;7398643;19;20421;-75
2023/05/23 09:35:12;;;;;;;12.27;11.17;;;;;;;18.35;100.00;96124.69;7402923;19;20382;-75
2023/05/23 09:37:47;;;;;;;10.80;9.83;;;;;;;18.64;100.00;96117.44;7401581;19;20382;-76
2023/05/23 09:40:15;;;;;;;11.17;10.07;;;;;;;18.92;100.00;96132.72;7398257;19;20417;-76
2023/05/23 09:42:52;;;;;;;14.57;10.77;;;;;;;18.39;100.00;96071.91;7402919;19;20369;-76
2023/05/23 09:45:19;;;;;;;12.80;11.50;;;;;;;18.79;100.00;96155.69;7399728;19;20392;-75
2023/05/23 09:47:52;;;;;;;13.23;12.10;;;;;;;18.69;100.00;96135.03;7401670;19;20881;-75
2023/05/23 09:50:20;;;;;;;12.83;11.70;;;;;;;18.81;100.00;96145.34;7400648;19;20358;-76
2023/05/23 09:52:47;;;;;;;12.43;11.33;;;;;;;18.72;100.00;96143.09;7399283;19;20969;-75
2023/05/23 09:55:14;;;;;;;13.67;11.00;;;;;;;18.73;100.00;96131.22;7400455;19;20931;-75
2023/05/23 09:57:42;;;;;;;12.00;10.80;;;;;;;18.46;100.00;96143.44;7402235;19;20408;-76
2023/05/23 10:00:13;;;;;;;13.73;12.37;;;;;;;17.83;100.00;96118.84;7401974;19;20693;-75
2023/05/23 10:03:11;;;;;;;14.27;12.83;;;;;;;18.07;100.00;96149.47;7396359;19;20424;-75
2023/05/23 10:05:50;;;;;;;13.30;11.83;;;;;;;18.32;100.00;96154.88;7400499;19;20888;-75
2023/05/23 10:08:39;;;;;;;14.37;10.83;;;;;;;18.60;100.00;96140.75;7400332;19;20369;-76
2023/05/23 10:11:11;;;;;;;12.57;11.27;;;;;;;18.87;100.00;96158.00;7399680;19;20430;-75
2023/05/23 10:13:49;;;;;;;13.83;12.37;;;;;;;18.90;100.00;96161.81;7402441;19;20363;-75
2023/05/23 10:16:30;;;;;;;12.47;11.23;;;;;;;18.94;100.00;96154.53;7401624;19;20350;-75
2023/05/23 10:19:05;;;;;;;13.37;11.40;;;;;;;18.91;100.00;96139.22;7401703;19;20374;-75
2023/05/23 10:21:39;;;;;;;12.10;11.00;;;;;;;19.16;100.00;96144.56;7398999;19;20424;-75
2023/05/23 10:24:07;;;;;;;10.10;9.20;;;;;;;19.30;100.00;96120.41;7398884;19;20788;-75
2023/05/23 10:26:34;;;;;;;11.20;10.20;;;;;;;19.53;100.00;96124.53;7399662;19;20740;-75
2023/05/23 10:29:02;;;;;;;11.00;8.80;;;;;;;19.39;100.00;96144.91;7400382;19;20344;-75
2023/05/23 10:31:29;;;;;;;10.10;9.20;;;;;;;19.17;100.00;96084.44;7399407;19;20409;-76
2023/05/23 10:34:27;;;;;;;9.23;8.40;;;;;;;20.05;100.00;96141.59;7400304;19;21024;-75
2023/05/23 10:37:05;;;;;;;9.80;8.90;;;;;;;19.99;100.00;96118.97;7396364;19;20396;-76
2023/05/23 10:39:54;;;;;;;9.77;8.80;;;;;;;19.24;100.00;96148.00;7399950;19;20362;-76
2023/05/23 10:42:26;;;;;;;9.73;8.77;;;;;;;18.97;100.00;96142.31;7397079;19;20431;-75
2023/05/23 10:45:13;;;;;;;9.73;8.73;;;;;;;19.50;100.00;96139.50;7400751;19;20379;-76
2023/05/23 10:47:40;;;;;;;10.43;9.63;;;;;;;19.55;100.00;96124.94;7400968;19;20405;-76
2023/05/23 10:50:12;;;;;;;10.80;9.70;;;;;;;20.15;100.00;96140.75;7398378;19;20448;-76
2023/05/23 10:52:40;;;;;;;10.43;9.33;;;;;;;20.17;100.00;96137.69;7397351;19;20427;-76
2023/05/23 10:55:16;;;;;;;9.17;8.37;;;;;;;20.15;100.00;96146.09;7399379;19;20448;-76
2023/05/23 10:57:43;;;;;;;11.13;9.30;;;;;;;19.05;100.00;96149.16;7399613;19;20398;-76
2023/05/23 11:00:15;;;;;;;12.33;11.07;;;;;;;18.37;100.00;96109.00;7399659;19;20369;-76
2023/05/23 11:02:59;;;;;;;10.63;9.73;;;;;;;19.15;100.00;96151.06;7397328;19;20435;-75
2023/05/23 11:05:30;;;;;;;13.13;10.00;;;;;;;19.17;100.00;96146.09;7400002;19;20392;-75
2023/05/23 11:08:16;;;;;;;9.97;8.57;;;;;;;18.56;100.00;96148.00;7397419;19;20352;-75
2023/05/23 11:10:55;;;;;;;10.40;9.60;;;;;;;18.33;100.00;96144.94;7400641;19;20450;-74
2023/05/23 11:13:22;;;;;;;11.27;8.63;;;;;;;18.77;100.00;96156.09;7399665;19;20690;-75
2023/05/23 11:15:50;;;;;;;9.40;7.37;;;;;;;19.53;100.00;96159.41;7396386;19;20375;-75
2023/05/23 11:18:33;;;;;;;9.70;8.10;;;;;;;20.07;100.00;96158.81;7398940;19;20402;-74
2023/05/23 11:21:01;;;;;;;9.80;8.80;;;;;;;19.23;100.00;96135.72;7398143;19;20420;-74
2023/05/23 11:23:41;;;;;;;8.50;7.77;;;;;;;18.69;100.00;96145.75;7398682;19;20374;-75